createdAt,value
2017-03-26T00:00:16.424Z,49.80
2017-03-26T00:01:14.722Z,49.80
2017-03-26T00:02:12.982Z,49.90
2017-03-26T00:03:11.259Z,50.00
2017-03-26T00:04:09.522Z,49.90
2017-03-26T00:05:07.957Z,49.90
2017-03-26T00:06:06.242Z,50.00
2017-03-26T00:07:04.509Z,49.90
2017-03-26T00:08:02.805Z,49.80
2017-03-26T00:09:01.197Z,49.80
2017-03-26T00:09:59.492Z,49.90
2017-03-26T00:10:57.713Z,49.90
2017-03-26T00:11:55.962Z,49.90
2017-03-26T00:12:54.229Z,49.90
2017-03-26T00:13:52.485Z,50.10
2017-03-26T00:14:50.726Z,50.10
2017-03-26T00:15:49.000Z,50.10
2017-03-26T00:16:47.253Z,50.40
2017-03-26T00:17:45.497Z,50.30
2017-03-26T00:18:43.761Z,50.20
2017-03-26T00:19:42.041Z,50.30
2017-03-26T00:20:40.309Z,50.20
2017-03-26T00:21:38.565Z,50.30
2017-03-26T00:22:36.816Z,50.30
2017-03-26T00:23:35.065Z,50.30
2017-03-26T00:24:33.311Z,50.50
2017-03-26T00:25:31.572Z,50.40
2017-03-26T00:26:29.864Z,50.50
2017-03-26T00:27:28.119Z,50.70
2017-03-26T00:28:26.364Z,50.60
2017-03-26T00:29:24.638Z,50.80
2017-03-26T00:30:23.009Z,50.90
2017-03-26T00:31:22.008Z,50.90
2017-03-26T00:32:20.998Z,51.00
2017-03-26T00:33:19.244Z,51.00
2017-03-26T00:34:18.269Z,51.10
2017-03-26T00:35:16.545Z,51.00
2017-03-26T00:36:14.826Z,51.00
2017-03-26T00:37:13.097Z,51.00
2017-03-26T00:38:11.371Z,51.10
2017-03-26T00:39:09.637Z,51.10
2017-03-26T00:40:08.654Z,51.30
2017-03-26T00:41:06.940Z,51.40
2017-03-26T00:42:05.193Z,51.60
2017-03-26T00:43:03.453Z,51.60
2017-03-26T00:44:01.725Z,51.70
2017-03-26T00:45:00.771Z,51.80
2017-03-26T00:45:59.014Z,51.80
2017-03-26T00:46:57.262Z,51.90
2017-03-26T00:47:55.497Z,51.70
2017-03-26T00:48:53.768Z,51.70
2017-03-26T00:49:52.001Z,51.50
2017-03-26T00:50:50.273Z,51.50
2017-03-26T00:51:48.546Z,51.40
2017-03-26T00:52:46.804Z,51.50
2017-03-26T00:53:45.021Z,51.70
2017-03-26T00:54:43.322Z,51.60
2017-03-26T00:55:41.557Z,51.30
2017-03-26T00:56:39.856Z,51.00
2017-03-26T00:57:38.125Z,50.70
2017-03-26T00:58:36.403Z,50.80
2017-03-26T00:59:34.629Z,50.70
2017-03-26T01:00:32.858Z,50.70
2017-03-26T01:01:31.160Z,50.90
2017-03-26T01:02:29.557Z,50.90
2017-03-26T01:04:26.670Z,51.10
2017-03-26T01:05:24.917Z,51.20
2017-03-26T01:06:23.190Z,51.30
2017-03-26T01:07:21.448Z,51.40
2017-03-26T01:08:19.749Z,51.40
2017-03-26T01:09:18.024Z,51.30
2017-03-26T01:10:16.301Z,51.40
2017-03-26T01:11:14.614Z,51.50
2017-03-26T01:12:12.894Z,51.70
2017-03-26T01:13:11.205Z,52.10
2017-03-26T01:14:09.492Z,52.20
2017-03-26T01:15:07.832Z,52.10
2017-03-26T01:16:06.153Z,52.00
2017-03-26T01:17:04.473Z,51.90
2017-03-26T01:18:02.797Z,51.90
2017-03-26T01:19:01.133Z,51.90
2017-03-26T01:20:00.219Z,52.00
2017-03-26T01:20:58.573Z,52.00
2017-03-26T01:21:56.834Z,51.90
2017-03-26T01:22:55.153Z,52.00
2017-03-26T01:23:53.425Z,52.10
2017-03-26T01:24:51.681Z,52.30
2017-03-26T01:25:50.003Z,52.40
2017-03-26T01:26:48.274Z,52.40
2017-03-26T01:27:46.545Z,52.40
2017-03-26T01:28:44.876Z,52.30
2017-03-26T01:29:43.178Z,52.30
2017-03-26T01:30:41.417Z,52.40
2017-03-26T01:31:39.710Z,52.40
2017-03-26T01:32:38.008Z,52.40
2017-03-26T01:33:36.304Z,52.50
2017-03-26T01:34:34.575Z,52.70
2017-03-26T01:35:32.818Z,52.70
2017-03-26T01:36:31.093Z,52.80
2017-03-26T01:37:29.405Z,52.80
2017-03-26T01:38:27.766Z,52.90
2017-03-26T01:39:26.144Z,52.90
2017-03-26T01:40:24.444Z,52.90
2017-03-26T01:41:22.725Z,53.00
2017-03-26T01:42:21.028Z,53.10
2017-03-26T01:43:19.301Z,53.10
2017-03-26T01:45:16.432Z,53.40
2017-03-26T01:46:14.674Z,53.40
2017-03-26T01:47:12.889Z,53.30
2017-03-26T01:48:11.118Z,53.10
2017-03-26T01:49:09.386Z,52.90
2017-03-26T01:50:07.654Z,52.90
2017-03-26T01:51:05.889Z,52.80
2017-03-26T01:52:04.186Z,52.60
2017-03-26T01:53:02.466Z,51.80
2017-03-26T01:54:00.693Z,51.60
2017-03-26T01:54:58.929Z,51.60
2017-03-26T01:55:57.894Z,51.60
2017-03-26T01:56:56.145Z,51.40
2017-03-26T01:57:54.445Z,51.50
2017-03-26T01:58:53.454Z,51.60
2017-03-26T01:59:51.765Z,51.40
2017-03-26T02:00:50.112Z,51.70
2017-03-26T02:01:48.357Z,51.70
2017-03-26T02:02:46.613Z,51.70
2017-03-26T02:03:44.898Z,51.60
2017-03-26T02:04:43.125Z,51.70
2017-03-26T02:05:42.101Z,51.70
2017-03-26T02:06:40.425Z,51.70
2017-03-26T02:07:38.665Z,51.60
2017-03-26T02:08:36.902Z,51.40
2017-03-26T02:09:35.185Z,51.30
2017-03-26T02:10:34.205Z,51.30
2017-03-26T02:11:32.469Z,51.30
2017-03-26T02:12:30.736Z,51.00
2017-03-26T02:13:29.001Z,51.10
2017-03-26T02:14:27.251Z,51.10
2017-03-26T02:15:25.552Z,51.10
2017-03-26T02:16:23.773Z,51.10
2017-03-26T02:17:22.012Z,51.40
2017-03-26T02:18:20.290Z,51.10
2017-03-26T02:19:19.280Z,51.10
2017-03-26T02:20:18.301Z,51.00
2017-03-26T02:21:16.522Z,51.00
2017-03-26T02:22:15.526Z,51.00
2017-03-26T02:23:13.814Z,50.90
2017-03-26T02:24:12.082Z,50.80
2017-03-26T02:25:10.350Z,50.60
2017-03-26T02:26:08.602Z,50.60
2017-03-26T02:27:06.893Z,50.60
2017-03-26T02:28:05.150Z,50.60
2017-03-26T02:29:03.391Z,50.70
2017-03-26T02:30:02.437Z,50.70
2017-03-26T02:31:00.693Z,50.70
2017-03-26T02:31:58.982Z,50.70
2017-03-26T02:32:57.177Z,50.70
2017-03-26T02:33:56.129Z,50.90
2017-03-26T02:34:54.341Z,51.00
2017-03-26T02:35:52.569Z,51.00
2017-03-26T02:36:51.573Z,51.00
2017-03-26T02:37:49.841Z,51.10
2017-03-26T02:38:48.107Z,51.10
2017-03-26T02:39:46.356Z,51.20
2017-03-26T02:40:44.600Z,51.20
2017-03-26T02:41:42.917Z,51.20
2017-03-26T02:42:41.168Z,51.40
2017-03-26T02:43:39.428Z,51.30
2017-03-26T02:44:37.738Z,51.40
2017-03-26T02:45:35.977Z,51.10
2017-03-26T02:46:34.281Z,51.80
2017-03-26T02:47:32.606Z,51.10
2017-03-26T02:48:30.867Z,51.10
2017-03-26T02:49:29.951Z,51.20
2017-03-26T02:50:28.237Z,51.10
2017-03-26T02:51:26.497Z,51.10
2017-03-26T02:52:24.816Z,51.10
2017-03-26T02:53:23.146Z,51.20
2017-03-26T02:54:21.449Z,51.30
2017-03-26T02:55:19.716Z,51.40
2017-03-26T02:56:17.964Z,51.70
2017-03-26T02:57:16.987Z,51.70
2017-03-26T02:58:15.999Z,51.50
2017-03-26T02:59:14.293Z,51.50
2017-03-26T03:00:12.564Z,51.70
2017-03-26T03:01:10.846Z,51.70
2017-03-26T03:02:09.092Z,51.80
2017-03-26T03:03:07.299Z,51.80
2017-03-26T03:04:05.562Z,52.00
2017-03-26T03:05:03.827Z,52.00
2017-03-26T03:06:02.809Z,52.10
2017-03-26T03:07:01.076Z,52.30
2017-03-26T03:07:59.273Z,52.20
2017-03-26T03:08:57.481Z,52.30
2017-03-26T03:09:55.700Z,52.20
2017-03-26T03:10:53.969Z,52.00
2017-03-26T03:11:52.230Z,52.10
2017-03-26T03:12:50.433Z,52.10
2017-03-26T03:13:48.661Z,52.20
2017-03-26T03:14:46.889Z,52.30
2017-03-26T03:15:45.088Z,52.60
2017-03-26T03:16:43.337Z,52.70
2017-03-26T03:17:41.587Z,52.80
2017-03-26T03:18:39.811Z,52.90
2017-03-26T03:19:38.012Z,53.00
2017-03-26T03:20:36.239Z,52.90
2017-03-26T03:21:34.473Z,52.80
2017-03-26T03:22:32.707Z,52.70
2017-03-26T03:23:30.964Z,52.70
2017-03-26T03:24:29.178Z,52.70
2017-03-26T03:25:27.370Z,52.70
2017-03-26T03:26:25.569Z,52.50
2017-03-26T03:27:24.558Z,52.30
2017-03-26T03:28:22.818Z,52.30
2017-03-26T03:29:21.049Z,52.40
2017-03-26T03:30:19.252Z,52.50
2017-03-26T03:31:17.495Z,52.50
2017-03-26T03:32:15.757Z,52.60
2017-03-26T03:33:13.974Z,52.70
2017-03-26T03:34:12.233Z,52.40
2017-03-26T03:35:10.472Z,53.00
2017-03-26T03:36:08.665Z,53.10
2017-03-26T03:37:07.629Z,53.10
2017-03-26T03:38:05.875Z,53.10
2017-03-26T03:39:04.109Z,53.20
2017-03-26T03:40:02.341Z,53.30
2017-03-26T03:41:00.640Z,53.30
2017-03-26T03:41:58.905Z,53.50
2017-03-26T03:42:57.181Z,53.60
2017-03-26T03:43:55.433Z,54.00
2017-03-26T03:44:53.736Z,54.00
2017-03-26T03:45:52.005Z,54.30
2017-03-26T03:46:50.288Z,54.40
2017-03-26T03:47:48.544Z,54.30
2017-03-26T03:48:46.774Z,54.30
2017-03-26T03:49:45.071Z,54.40
2017-03-26T03:50:43.405Z,54.40
2017-03-26T03:51:41.721Z,54.50
2017-03-26T03:52:40.717Z,55.10
2017-03-26T03:53:39.685Z,54.50
2017-03-26T03:54:37.961Z,54.50
2017-03-26T03:55:36.981Z,54.50
2017-03-26T03:56:35.229Z,54.40
2017-03-26T03:57:33.531Z,54.60
2017-03-26T03:58:31.790Z,54.70
2017-03-26T03:59:30.128Z,55.00
2017-03-26T04:00:28.410Z,55.20
2017-03-26T04:01:26.685Z,55.30
2017-03-26T04:02:24.980Z,55.30
2017-03-26T04:03:23.261Z,55.40
2017-03-26T04:04:21.553Z,55.30
2017-03-26T04:05:20.578Z,55.50
2017-03-26T04:06:18.930Z,55.50
2017-03-26T04:07:17.198Z,55.70
2017-03-26T04:08:15.494Z,56.40
2017-03-26T04:09:13.846Z,56.00
2017-03-26T04:10:12.140Z,56.10
2017-03-26T04:11:10.425Z,56.00
2017-03-26T04:12:08.672Z,56.00
2017-03-26T04:13:06.934Z,56.00
2017-03-26T04:14:05.213Z,56.10
2017-03-26T04:15:03.539Z,56.30
2017-03-26T04:16:01.804Z,56.50
2017-03-26T04:17:00.074Z,56.60
2017-03-26T04:17:58.330Z,56.50
2017-03-26T04:18:56.587Z,56.70
2017-03-26T04:19:54.844Z,56.80
2017-03-26T04:20:53.110Z,57.00
2017-03-26T04:21:51.377Z,56.90
2017-03-26T04:22:49.637Z,56.90
2017-03-26T04:23:47.886Z,57.30
2017-03-26T04:24:46.128Z,57.50
2017-03-26T04:25:44.444Z,57.40
2017-03-26T04:26:42.751Z,57.30
2017-03-26T04:27:41.849Z,57.20
2017-03-26T04:28:40.100Z,57.20
2017-03-26T04:29:38.365Z,57.30
2017-03-26T04:30:36.652Z,57.50
2017-03-26T04:31:34.912Z,57.60
2017-03-26T04:32:33.173Z,57.50
2017-03-26T04:33:31.435Z,57.70
2017-03-26T04:34:29.725Z,57.80
2017-03-26T04:35:27.964Z,58.20
2017-03-26T04:36:26.253Z,58.20
2017-03-26T04:37:24.520Z,58.30
2017-03-26T04:38:22.831Z,58.50
2017-03-26T04:39:21.124Z,58.80
2017-03-26T04:40:19.433Z,58.30
2017-03-26T04:41:18.464Z,58.20
2017-03-26T04:42:16.738Z,58.10
2017-03-26T04:43:14.986Z,58.40
2017-03-26T04:44:13.345Z,58.50
2017-03-26T04:45:11.665Z,58.40
2017-03-26T04:46:09.937Z,58.50
2017-03-26T04:47:08.231Z,58.50
2017-03-26T04:48:07.230Z,58.50
2017-03-26T04:49:06.259Z,58.70
2017-03-26T04:50:04.568Z,58.60
2017-03-26T04:51:02.840Z,58.60
2017-03-26T04:52:01.174Z,58.70
2017-03-26T04:52:59.438Z,58.70
2017-03-26T04:53:57.681Z,59.40
2017-03-26T04:54:55.925Z,58.70
2017-03-26T04:55:54.190Z,58.80
2017-03-26T04:56:52.474Z,58.80
2017-03-26T04:57:50.763Z,58.80
2017-03-26T04:58:48.996Z,58.90
2017-03-26T04:59:47.253Z,58.90
2017-03-26T05:00:45.504Z,58.80
2017-03-26T05:01:43.853Z,58.90
2017-03-26T05:02:42.129Z,59.00
2017-03-26T05:03:40.396Z,59.00
2017-03-26T05:04:38.658Z,59.10
2017-03-26T05:05:36.937Z,59.00
2017-03-26T05:06:35.185Z,58.90
2017-03-26T05:07:34.097Z,59.30
2017-03-26T05:08:32.342Z,59.30
2017-03-26T05:09:30.585Z,59.20
2017-03-26T05:10:28.833Z,59.20
2017-03-26T05:11:27.077Z,59.30
2017-03-26T05:12:25.366Z,59.50
2017-03-26T05:13:23.619Z,59.50
2017-03-26T05:14:21.901Z,59.40
2017-03-26T05:15:20.164Z,59.40
2017-03-26T05:16:18.425Z,59.70
2017-03-26T05:17:16.685Z,59.60
2017-03-26T05:18:14.939Z,59.70
2017-03-26T05:19:13.272Z,59.80
2017-03-26T05:20:11.530Z,59.70
2017-03-26T05:21:10.556Z,59.60
2017-03-26T05:22:08.818Z,59.70
2017-03-26T05:23:07.060Z,59.80
2017-03-26T05:24:05.309Z,59.90
2017-03-26T05:25:03.581Z,60.10
2017-03-26T05:26:01.836Z,60.20
2017-03-26T05:27:00.073Z,60.20
2017-03-26T05:27:59.798Z,60.30
2017-03-26T05:28:58.061Z,60.30
2017-03-26T05:29:56.304Z,60.40
2017-03-26T05:30:54.561Z,60.40
2017-03-26T05:31:52.830Z,60.30
2017-03-26T05:32:51.091Z,60.10
2017-03-26T05:33:49.339Z,60.20
2017-03-26T05:34:47.560Z,60.20
2017-03-26T05:35:45.781Z,60.50
2017-03-26T05:36:44.037Z,60.40
2017-03-26T05:37:42.289Z,60.40
2017-03-26T05:38:41.277Z,60.40
2017-03-26T05:39:40.269Z,60.50
2017-03-26T05:40:38.500Z,60.80
2017-03-26T05:41:37.541Z,60.50
2017-03-26T05:42:35.876Z,60.60
2017-03-26T05:43:34.142Z,60.70
2017-03-26T05:44:32.369Z,60.60
2017-03-26T05:45:30.619Z,60.70
2017-03-26T05:46:28.844Z,60.60
2017-03-26T05:47:27.112Z,60.70
2017-03-26T05:48:25.373Z,60.70
2017-03-26T05:49:24.367Z,60.60
2017-03-26T05:50:22.626Z,60.70
2017-03-26T05:51:20.893Z,60.60
2017-03-26T05:52:19.175Z,60.60
2017-03-26T05:53:18.240Z,60.60
2017-03-26T05:54:16.545Z,61.00
2017-03-26T05:55:14.789Z,60.90
2017-03-26T05:56:13.050Z,60.90
2017-03-26T05:57:11.304Z,60.90
2017-03-26T05:58:09.558Z,60.80
2017-03-26T05:59:08.158Z,60.80
2017-03-26T06:00:06.525Z,61.00
2017-03-26T06:01:04.793Z,60.90
2017-03-26T06:02:03.054Z,60.90
2017-03-26T06:03:01.325Z,60.80
2017-03-26T06:03:59.593Z,61.00
2017-03-26T06:04:57.822Z,60.90
2017-03-26T06:05:56.104Z,60.90
2017-03-26T06:06:54.353Z,60.80
2017-03-26T06:07:52.590Z,61.00
2017-03-26T06:08:50.884Z,61.20
2017-03-26T06:09:49.879Z,61.40
2017-03-26T06:10:48.864Z,61.60
2017-03-26T06:11:47.141Z,61.50
2017-03-26T06:12:45.453Z,61.30
2017-03-26T06:13:43.779Z,61.20
2017-03-26T06:14:42.045Z,61.10
2017-03-26T06:15:40.279Z,61.00
2017-03-26T06:16:38.526Z,61.00
2017-03-26T06:17:36.808Z,60.90
2017-03-26T06:18:35.808Z,60.80
2017-03-26T06:19:34.038Z,60.90
2017-03-26T06:20:32.344Z,61.20
2017-03-26T06:21:30.609Z,61.20
2017-03-26T06:22:28.860Z,61.00
2017-03-26T06:23:27.867Z,61.00
2017-03-26T06:24:26.861Z,61.00
2017-03-26T06:25:25.117Z,60.90
2017-03-26T06:26:24.137Z,60.90
2017-03-26T06:27:22.451Z,60.80
2017-03-26T06:28:20.700Z,61.00
2017-03-26T06:29:18.986Z,61.10
2017-03-26T06:30:18.020Z,61.00
2017-03-26T06:31:16.275Z,60.80
2017-03-26T06:32:14.543Z,60.80
2017-03-26T06:33:12.843Z,60.80
2017-03-26T06:34:11.132Z,60.50
2017-03-26T06:35:10.202Z,60.30
2017-03-26T06:36:08.464Z,60.20
2017-03-26T06:37:06.730Z,60.10
2017-03-26T06:38:04.984Z,59.80
2017-03-26T06:39:03.346Z,59.50
2017-03-26T06:40:01.601Z,59.40
2017-03-26T06:40:59.895Z,59.40
2017-03-26T06:41:58.137Z,59.30
2017-03-26T06:42:56.325Z,59.00
2017-03-26T06:43:54.517Z,58.90
2017-03-26T06:44:52.708Z,58.70
2017-03-26T06:45:50.898Z,58.60
2017-03-26T06:46:49.129Z,58.70
2017-03-26T06:47:47.358Z,58.20
2017-03-26T06:48:45.541Z,58.10
2017-03-26T06:49:43.728Z,57.90
2017-03-26T06:50:42.011Z,57.80
2017-03-26T06:51:40.248Z,57.90
2017-03-26T06:52:38.546Z,57.90
2017-03-26T06:53:36.837Z,57.80
2017-03-26T06:54:35.037Z,57.70
2017-03-26T06:55:34.002Z,57.60
2017-03-26T06:56:32.253Z,57.60
2017-03-26T06:57:30.428Z,57.20
2017-03-26T06:58:28.729Z,57.20
2017-03-26T06:59:27.682Z,57.50
2017-03-26T07:00:25.902Z,58.00
2017-03-26T07:01:24.134Z,57.20
2017-03-26T07:02:31.461Z,57.20
2017-03-26T07:03:29.664Z,56.90
2017-03-26T07:04:27.906Z,57.10
2017-03-26T07:05:26.126Z,57.00
2017-03-26T07:06:24.317Z,57.00
2017-03-26T07:07:22.606Z,56.90
2017-03-26T07:08:20.864Z,56.90
2017-03-26T07:09:19.083Z,56.80
2017-03-26T07:10:17.323Z,56.80
2017-03-26T07:11:15.552Z,56.80
2017-03-26T07:12:13.772Z,56.90
2017-03-26T07:13:12.741Z,57.10
2017-03-26T07:14:11.713Z,57.10
2017-03-26T07:15:09.936Z,57.00
2017-03-26T07:16:08.173Z,57.00
2017-03-26T07:17:06.389Z,57.00
2017-03-26T07:18:04.622Z,56.90
2017-03-26T07:19:03.617Z,57.00
2017-03-26T07:20:01.839Z,57.40
2017-03-26T07:21:00.105Z,56.50
2017-03-26T07:21:59.071Z,56.40
2017-03-26T07:22:58.025Z,56.40
2017-03-26T07:23:56.229Z,56.40
2017-03-26T07:24:55.170Z,56.00
2017-03-26T07:25:53.393Z,55.90
2017-03-26T07:26:51.662Z,55.80
2017-03-26T07:27:50.597Z,55.60
2017-03-26T07:28:48.774Z,55.80
2017-03-26T07:29:46.977Z,56.30
2017-03-26T07:30:45.188Z,55.50
2017-03-26T07:31:43.440Z,55.40
2017-03-26T07:32:41.696Z,55.40
2017-03-26T07:33:40.032Z,55.40
2017-03-26T07:34:38.360Z,55.20
2017-03-26T07:35:36.561Z,55.30
2017-03-26T07:36:34.789Z,55.40
2017-03-26T07:37:33.592Z,55.50
2017-03-26T07:38:32.017Z,55.40
2017-03-26T07:39:30.236Z,55.30
2017-03-26T07:40:28.428Z,55.10
2017-03-26T07:41:26.617Z,55.20
2017-03-26T07:42:24.892Z,55.30
2017-03-26T07:43:23.173Z,55.30
2017-03-26T07:44:21.446Z,55.30
2017-03-26T07:45:19.848Z,55.10
2017-03-26T07:46:18.153Z,55.20
2017-03-26T07:47:16.440Z,55.30
2017-03-26T07:48:14.717Z,55.20
2017-03-26T07:49:12.946Z,55.20
2017-03-26T07:50:11.229Z,55.20
2017-03-26T07:51:09.496Z,55.00
2017-03-26T07:52:07.773Z,55.00
2017-03-26T07:53:06.073Z,55.00
2017-03-26T07:54:04.342Z,55.10
2017-03-26T07:55:02.601Z,55.10
2017-03-26T07:56:00.940Z,55.20
2017-03-26T07:56:59.981Z,55.30
2017-03-26T07:57:58.204Z,55.40
2017-03-26T07:58:56.421Z,55.20
2017-03-26T07:59:54.721Z,55.10
2017-03-26T08:00:52.972Z,55.00
2017-03-26T08:01:51.225Z,54.30
2017-03-26T08:02:49.461Z,54.20
2017-03-26T08:03:47.712Z,54.10
2017-03-26T08:04:46.680Z,54.10
2017-03-26T08:05:45.733Z,53.30
2017-03-26T08:06:44.108Z,53.40
2017-03-26T08:07:42.400Z,53.70
2017-03-26T08:08:41.419Z,53.70
2017-03-26T08:09:39.716Z,53.80
2017-03-26T08:10:38.009Z,54.00
2017-03-26T08:11:36.297Z,54.20
2017-03-26T08:12:36.239Z,54.20
2017-03-26T08:13:34.554Z,54.10
2017-03-26T08:14:33.126Z,54.00
2017-03-26T08:15:31.457Z,53.80
2017-03-26T08:16:29.737Z,53.70
2017-03-26T08:17:28.105Z,53.80
2017-03-26T08:18:26.377Z,54.00
2017-03-26T08:19:24.690Z,54.00
2017-03-26T08:20:22.973Z,54.00
2017-03-26T08:21:21.226Z,54.00
2017-03-26T08:22:19.473Z,53.80
2017-03-26T08:23:17.731Z,53.50
2017-03-26T08:24:16.733Z,53.60
2017-03-26T08:25:15.027Z,53.60
2017-03-26T08:26:13.308Z,53.00
2017-03-26T08:27:11.581Z,52.90
2017-03-26T08:28:09.849Z,53.00
2017-03-26T08:29:08.130Z,53.00
2017-03-26T08:30:06.397Z,52.90
2017-03-26T08:31:04.674Z,52.70
2017-03-26T08:32:03.716Z,52.40
2017-03-26T08:33:01.961Z,51.90
2017-03-26T08:34:00.196Z,51.90
2017-03-26T08:34:59.188Z,52.20
2017-03-26T08:35:57.436Z,52.20
2017-03-26T08:36:55.720Z,52.10
2017-03-26T08:37:54.047Z,52.20
2017-03-26T08:38:52.281Z,52.10
2017-03-26T08:39:50.518Z,52.20
2017-03-26T08:40:48.792Z,52.20
2017-03-26T08:41:47.030Z,52.20
2017-03-26T08:42:45.295Z,51.80
2017-03-26T08:43:43.616Z,51.10
2017-03-26T08:44:42.618Z,50.90
2017-03-26T08:45:40.838Z,51.00
2017-03-26T08:46:39.077Z,51.10
2017-03-26T08:47:37.330Z,51.20
2017-03-26T08:48:35.566Z,51.40
2017-03-26T08:49:33.813Z,51.50
2017-03-26T08:50:32.062Z,51.70
2017-03-26T08:51:30.304Z,51.30
2017-03-26T08:52:28.537Z,50.90
2017-03-26T08:53:26.826Z,51.20
2017-03-26T08:54:25.098Z,50.90
2017-03-26T08:55:23.396Z,49.00
2017-03-26T08:56:22.396Z,49.20
2017-03-26T08:57:20.649Z,49.40
2017-03-26T08:58:18.920Z,49.90
2017-03-26T08:59:17.213Z,49.60
2017-03-26T09:00:15.555Z,49.40
2017-03-26T09:01:13.925Z,49.40
2017-03-26T09:02:12.205Z,49.40
2017-03-26T09:03:10.453Z,49.40
2017-03-26T09:04:08.737Z,49.00
2017-03-26T09:05:07.006Z,48.50
2017-03-26T09:06:05.312Z,48.60
2017-03-26T09:07:03.541Z,48.60
2017-03-26T09:08:01.796Z,48.80
2017-03-26T09:09:00.230Z,49.00
2017-03-26T09:09:58.469Z,48.90
2017-03-26T09:10:56.697Z,48.70
2017-03-26T09:11:54.999Z,48.60
2017-03-26T09:12:53.238Z,48.10
2017-03-26T09:13:51.482Z,47.60
2017-03-26T09:14:50.461Z,47.40
2017-03-26T09:15:48.732Z,47.20
2017-03-26T09:16:46.979Z,47.20
2017-03-26T09:17:46.031Z,47.50
2017-03-26T09:18:44.342Z,47.80
2017-03-26T09:19:43.365Z,48.40
2017-03-26T09:20:41.612Z,48.40
2017-03-26T09:21:39.849Z,48.10
2017-03-26T09:22:38.865Z,48.10
2017-03-26T09:23:37.153Z,48.20
2017-03-26T09:24:35.394Z,48.30
2017-03-26T09:25:34.081Z,48.40
2017-03-26T09:26:32.368Z,48.40
2017-03-26T09:27:30.696Z,49.30
2017-03-26T09:28:28.969Z,49.10
2017-03-26T09:29:27.258Z,49.30
2017-03-26T09:30:25.497Z,49.20
2017-03-26T09:31:23.829Z,49.20
2017-03-26T09:32:22.875Z,48.90
2017-03-26T09:33:21.141Z,48.80
2017-03-26T09:34:19.421Z,48.50
2017-03-26T09:35:17.725Z,47.80
2017-03-26T09:36:16.739Z,47.50
2017-03-26T09:37:15.019Z,47.70
2017-03-26T09:38:13.309Z,48.30
2017-03-26T09:39:11.625Z,47.90
2017-03-26T09:40:09.961Z,47.70
2017-03-26T09:41:09.005Z,47.60
2017-03-26T09:42:07.359Z,47.60
2017-03-26T09:43:05.674Z,47.50
2017-03-26T09:44:04.042Z,47.70
2017-03-26T09:45:02.289Z,47.80
2017-03-26T09:46:00.589Z,47.40
2017-03-26T09:46:59.631Z,47.00
2017-03-26T09:47:58.646Z,47.00
2017-03-26T09:48:56.893Z,47.00
2017-03-26T09:49:55.133Z,47.40
2017-03-26T09:50:53.394Z,47.80
2017-03-26T09:51:52.342Z,47.70
2017-03-26T09:52:51.421Z,46.60
2017-03-26T09:53:49.686Z,46.90
2017-03-26T09:54:48.085Z,47.30
2017-03-26T09:55:46.340Z,46.80
2017-03-26T09:56:45.306Z,46.40
2017-03-26T09:57:43.598Z,46.10
2017-03-26T09:58:41.786Z,46.30
2017-03-26T09:59:40.022Z,47.00
2017-03-26T10:00:38.213Z,47.20
2017-03-26T10:01:36.426Z,47.80
2017-03-26T10:02:34.651Z,47.70
2017-03-26T10:03:32.875Z,46.70
2017-03-26T10:04:31.106Z,46.50
2017-03-26T10:05:29.305Z,46.80
2017-03-26T10:06:27.597Z,46.80
2017-03-26T10:07:25.813Z,47.00
2017-03-26T10:08:24.060Z,46.50
2017-03-26T10:09:22.299Z,46.40
2017-03-26T10:10:20.517Z,46.40
2017-03-26T10:11:18.758Z,45.60
2017-03-26T10:12:16.997Z,45.80
2017-03-26T10:13:15.233Z,46.00
2017-03-26T10:14:14.202Z,46.20
2017-03-26T10:15:12.452Z,46.30
2017-03-26T10:16:10.813Z,46.20
2017-03-26T10:17:09.039Z,46.20
2017-03-26T10:18:07.264Z,46.20
2017-03-26T10:19:05.473Z,46.70
2017-03-26T10:20:03.741Z,44.90
2017-03-26T10:21:02.142Z,45.00
2017-03-26T10:22:00.352Z,45.50
2017-03-26T10:22:58.578Z,45.20
2017-03-26T10:23:56.801Z,44.30
2017-03-26T10:24:54.996Z,44.10
2017-03-26T10:25:53.241Z,44.20
2017-03-26T10:26:51.453Z,44.20
2017-03-26T10:27:50.410Z,44.90
2017-03-26T10:28:48.645Z,45.30
2017-03-26T10:29:46.858Z,45.00
2017-03-26T10:30:45.169Z,45.00
2017-03-26T10:31:43.399Z,44.00
2017-03-26T10:32:41.625Z,43.30
2017-03-26T10:33:39.828Z,43.40
2017-03-26T10:34:38.757Z,43.10
2017-03-26T10:35:37.012Z,42.90
2017-03-26T10:36:35.280Z,42.70
2017-03-26T10:37:33.514Z,42.90
2017-03-26T10:38:31.723Z,43.30
2017-03-26T10:39:29.937Z,42.50
2017-03-26T10:40:28.159Z,41.70
2017-03-26T10:41:26.375Z,42.50
2017-03-26T10:42:24.643Z,42.60
2017-03-26T10:43:22.878Z,42.30
2017-03-26T10:44:21.061Z,42.10
2017-03-26T10:45:19.321Z,42.40
2017-03-26T10:46:17.584Z,42.40
2017-03-26T10:47:15.893Z,42.50
2017-03-26T10:48:14.404Z,42.90
2017-03-26T10:49:12.601Z,44.10
2017-03-26T10:50:11.722Z,43.90
2017-03-26T10:51:09.946Z,43.60
2017-03-26T10:52:08.473Z,43.30
2017-03-26T10:53:06.733Z,43.90
2017-03-26T10:54:05.158Z,44.40
2017-03-26T10:55:03.461Z,42.60
2017-03-26T10:56:01.665Z,42.40
2017-03-26T10:56:59.887Z,42.50
2017-03-26T10:57:58.898Z,42.10
2017-03-26T10:58:57.105Z,41.90
2017-03-26T10:59:56.078Z,41.80
2017-03-26T11:00:54.274Z,42.10
2017-03-26T11:01:52.582Z,42.90
2017-03-26T11:02:50.810Z,42.20
2017-03-26T11:03:49.016Z,41.90
2017-03-26T11:04:47.249Z,41.90
2017-03-26T11:05:46.196Z,42.10
2017-03-26T11:06:45.221Z,42.20
2017-03-26T11:07:43.858Z,41.80
2017-03-26T11:08:42.069Z,41.20
2017-03-26T11:09:40.239Z,41.00
2017-03-26T11:10:38.525Z,41.00
2017-03-26T11:11:36.825Z,40.80
2017-03-26T11:12:35.077Z,40.10
2017-03-26T11:13:33.311Z,39.40
2017-03-26T11:14:31.537Z,39.70
2017-03-26T11:15:29.785Z,40.20
2017-03-26T11:16:28.764Z,40.40
2017-03-26T11:17:26.954Z,40.00
2017-03-26T11:18:25.897Z,39.70
2017-03-26T11:19:24.157Z,39.50
2017-03-26T11:20:22.399Z,39.50
2017-03-26T11:21:20.649Z,40.00
2017-03-26T11:22:18.984Z,40.40
2017-03-26T11:23:17.286Z,40.50
2017-03-26T11:24:15.656Z,40.70
2017-03-26T11:25:13.853Z,40.30
2017-03-26T11:26:12.073Z,39.50
2017-03-26T11:27:11.073Z,39.40
2017-03-26T11:28:09.294Z,39.20
2017-03-26T11:29:08.389Z,38.10
2017-03-26T11:30:07.389Z,37.80
2017-03-26T11:31:05.676Z,36.30
2017-03-26T11:32:03.885Z,36.80
2017-03-26T11:33:02.129Z,37.00
2017-03-26T11:34:01.090Z,37.00
2017-03-26T11:34:59.300Z,36.70
2017-03-26T11:35:57.737Z,36.70
2017-03-26T11:36:55.972Z,36.80
2017-03-26T11:37:54.182Z,35.80
2017-03-26T11:38:52.412Z,35.70
2017-03-26T11:39:50.624Z,36.00
2017-03-26T11:40:48.821Z,36.10
2017-03-26T11:41:47.753Z,35.50
2017-03-26T11:42:46.009Z,35.20
2017-03-26T11:43:44.318Z,34.80
2017-03-26T11:44:43.430Z,34.20
2017-03-26T11:45:41.719Z,33.70
2017-03-26T11:46:40.122Z,33.50
2017-03-26T11:47:38.375Z,34.00
2017-03-26T11:48:36.670Z,32.40
2017-03-26T11:49:35.346Z,32.00
2017-03-26T11:50:34.665Z,31.90
2017-03-26T11:51:33.016Z,31.70
2017-03-26T11:52:32.014Z,30.80
2017-03-26T11:53:30.333Z,30.80
2017-03-26T11:54:28.605Z,31.40
2017-03-26T11:55:26.906Z,31.20
2017-03-26T11:56:25.914Z,30.90
2017-03-26T11:57:24.263Z,30.50
2017-03-26T11:58:22.545Z,30.70
2017-03-26T11:59:20.822Z,30.30
2017-03-26T12:00:19.129Z,29.90
2017-03-26T12:01:17.414Z,28.70
2017-03-26T12:02:15.710Z,28.70
2017-03-26T12:03:13.964Z,28.40
2017-03-26T12:04:12.239Z,27.70
2017-03-26T12:05:10.557Z,27.70
2017-03-26T12:06:08.853Z,27.60
2017-03-26T12:07:07.873Z,28.00
2017-03-26T12:08:06.325Z,27.40
2017-03-26T12:09:04.612Z,27.20
2017-03-26T12:10:02.877Z,25.50
2017-03-26T12:11:01.141Z,25.60
2017-03-26T12:11:59.392Z,26.10
2017-03-26T12:12:57.633Z,26.50
2017-03-26T12:13:55.885Z,26.80
2017-03-26T12:14:54.137Z,25.00
2017-03-26T12:15:52.430Z,24.70
2017-03-26T12:16:51.441Z,25.00
2017-03-26T12:17:49.754Z,25.30
2017-03-26T12:18:48.025Z,25.30
2017-03-26T12:19:46.259Z,25.70
2017-03-26T12:20:44.509Z,26.00
2017-03-26T12:21:42.765Z,25.90
2017-03-26T12:22:41.238Z,25.70
2017-03-26T12:23:39.505Z,25.40
2017-03-26T12:24:37.764Z,24.90
2017-03-26T12:25:36.849Z,24.80
2017-03-26T12:26:35.867Z,24.60
2017-03-26T12:27:34.117Z,24.90
2017-03-26T12:28:32.356Z,23.80
2017-03-26T12:29:31.537Z,23.90
2017-03-26T12:30:29.801Z,23.40
2017-03-26T12:31:28.787Z,23.40
2017-03-26T12:32:27.017Z,22.80
2017-03-26T12:33:25.290Z,22.60